Latest Weather Observations for Renmark Airport

IDS60801

Issued at 9:31 am CST Thursday 19 September 2019 (issued every 10 minutes, with the page automatically refreshed every 10 minutes)

About weather observations | Map of weather stations | Latest weather observations for SA | Other Formats
Station Details ID: 024048 Name: RENMARK AERO Lat: -34.20 Lon: 140.68 Height: 31.5 m
Data from the previous 72 hours. | See also: Recent months at Renmark Airport
Date/Time
CST
Temp
°C
App
Temp
°C
Dew
Point
°C
Rel
Hum
%
Delta-T
°C
Wind Press
QNH
hPa
Press
MSL
hPa
Rain since
9am
mm
Dir  Spd
km/h
Gust
km/h
Spd
kts
Gust
kts
19/09:30am 21.0 13.3 3.2 31 8.4 NNE 33 50 18 27 1017.5 1017.4 0.0
19/09:00am 20.3 12.9 3.9 34 7.8 NNE 32 43 17 23 1017.8 1017.7 0.0
19/08:30am 17.6 11.3 3.5 39 6.5 NNE 26 39 14 21 1018.4 1018.3 0.0
19/08:00am 16.1 10.6 3.9 44 5.7 NNE 22 28 12 15 1018.7 1018.6 0.0
19/07:30am 14.2 8.7 3.9 50 4.7 N 22 32 12 17 1018.6 1018.5 0.0
19/07:00am 12.4 7.7 3.4 54 4.0 NNE 17 20 9 11 1018.7 1018.6 0.0
19/06:30am 11.5 6.8 3.3 57 3.6 N 17 22 9 12 1018.6 1018.5 0.0
19/06:00am 12.1 6.9 3.3 55 3.9 N 20 28 11 15 1018.0 1017.9 0.0
19/05:30am 11.7 6.7 3.5 57 3.6 N 19 24 10 13 1018.0 1017.9 0.0
19/05:00am 10.6 5.5 3.2 60 3.2 NNE 19 22 10 12 1017.9 1017.8 0.0
19/04:30am 9.8 5.1 3.1 63 2.9 NE 17 19 9 10 1018.1 1018.0 0.0
19/04:00am 10.2 5.9 3.0 61 3.1 NE 15 17 8 9 1018.5 1018.4 0.0
19/03:30am 10.3 6.3 3.1 61 3.1 NNE 13 17 7 9 1018.7 1018.6 0.0
19/03:00am 10.7 6.4 3.0 59 3.3 NE 15 17 8 9 1018.9 1018.9 0.0
19/02:30am 10.9 6.2 3.2 59 3.4 NNE 17 19 9 10 1019.2 1019.2 0.0
19/02:00am 10.7 7.1 3.0 59 3.3 NNE 11 13 6 7 1019.6 1019.6 0.0
19/01:30am 11.4 7.1 3.2 57 3.6 NNE 15 17 8 9 1019.8 1019.8 0.0
19/01:00am 12.1 7.8 3.1 54 4.0 NNE 15 17 8 9 1020.4 1020.4 0.0
19/12:30am 12.3 8.3 3.0 53 4.1 NNE 13 17 7 9 1020.4 1020.4 0.0
19/12:00am 11.7 7.8 3.2 56 3.7 NNE 13 15 7 8 1020.5 1020.5 0.0
 
Date/Time
CST
Temp
°C
App
Temp
°C
Dew
Point
°C
Rel
Hum
%
Delta-T
°C
Wind Press
QNH
hPa
Press
MSL
hPa
Rain since
9am
mm
Dir  Spd
km/h
Gust
km/h
Spd
kts
Gust
kts
18/11:30pm 12.3 8.4 3.5 55 3.9 NNE 13 17 7 9 1020.8 1020.8 0.0
18/11:00pm 12.0 8.5 3.5 56 3.8 NE 11 15 6 8 1021.0 1021.0 0.0
18/10:30pm 11.9 8.4 3.4 56 3.7 NE 11 13 6 7 1021.4 1021.4 0.0
18/10:00pm 12.4 9.6 3.4 54 4.0 NE 7 9 4 5 1021.6 1021.6 0.0
18/09:30pm 12.9 9.8 3.6 53 4.2 NE 9 11 5 6 1021.7 1021.7 0.0
18/09:00pm 12.8 9.3 3.5 53 4.1 ENE 11 13 6 7 1021.7 1021.7 0.0
18/08:30pm 14.0 10.8 3.2 48 4.8 ENE 9 11 5 6 1021.9 1021.9 0.0
18/08:00pm 13.7 11.1 3.2 49 4.7 ENE 6 7 3 4 1022.0 1022.0 0.0
18/07:30pm 14.3 11.5 2.9 46 5.1 ENE 7 9 4 5 1021.8 1021.8 0.0
18/07:00pm 15.7 12.4 2.2 40 6.0 ENE 9 11 5 6 1021.6 1021.6 0.0
18/06:30pm 16.6 13.1 1.5 36 6.7 ENE 9 13 5 7 1021.5 1021.5 0.0
18/06:00pm 18.6 14.3 1.2 31 7.8 ENE 13 17 7 9 1021.6 1021.6 0.0
18/05:30pm 20.1 15.0 0.5 27 8.7 ENE 17 20 9 11 1021.8 1021.8 0.0
18/05:00pm 20.7 15.2 0.5 26 9.1 ENE 19 26 10 14 1021.7 1021.7 0.0
18/04:30pm 21.2 15.7 0.4 25 9.3 NE 19 28 10 15 1021.9 1021.9 0.0
18/04:00pm 20.9 15.3 0.2 25 9.3 NE 19 24 10 13 1022.0 1022.0 0.0
18/03:30pm 21.5 16.0 0.7 25 9.4 NE 19 26 10 14 1022.2 1022.2 0.0
18/03:00pm 21.2 16.4 0.4 25 9.3 NNE 15 24 8 13 1022.6 1022.6 0.0
18/02:30pm 20.7 15.5 0.0 25 9.2 NNE 17 24 9 13 1023.1 1023.1 0.0
18/02:00pm 21.0 15.5 0.8 26 9.2 NNE 19 28 10 15 1023.6 1023.6 0.0
18/01:30pm 20.7 15.6 0.5 26 9.0 NNE 17 28 9 15 1024.0 1024.0 0.0
18/01:00pm 19.3 15.7 0.8 29 8.3 N 9 17 5 9 1024.3 1024.3 0.0
18/12:30pm 19.1 14.0 0.7 29 8.1 NNE 17 28 9 15 1024.7 1024.7 0.0
18/12:00pm 18.6 13.6 1.2 31 7.7 NNE 17 26 9 14 1025.1 1025.1 0.0
18/11:30am 18.5 12.9 1.5 32 7.6 NNE 20 30 11 16 1025.5 1025.5 0.0
18/11:00am 16.8 11.2 0.9 34 7.0 N 20 28 11 15 1026.0 1026.0 0.0
18/10:30am 16.5 11.5 1.4 36 6.6 NNE 17 28 9 15 1026.4 1026.4 0.0
18/10:00am 15.9 10.4 0.9 36 6.5 NE 19 26 10 14 1026.8 1026.8 0.0
18/09:30am 15.3 9.8 0.7 37 6.2 ENE 19 24 10 13 1026.9 1026.9 0.0
18/09:00am 14.0 8.5 0.6 40 5.6 NE 19 22 10 12 1027.3 1027.3 0.0
18/08:30am 12.3 8.3 3.0 53 4.1 NE 13 19 7 10 1027.3 1027.3 0.0
18/08:00am 9.7 6.0 2.6 61 3.0 ENE 11 17 6 9 1027.4 1027.4 0.0
18/07:30am 7.2 3.8 1.9 69 2.1 ENE 9 11 5 6 1027.5 1027.5 0.0
18/07:24am 6.7 3.7 2.2 73 1.8 ENE 7 11 4 6 1027.4 1027.4 0.0
18/07:00am 1.6 -0.3 0.4 92 0.4 CALM 0 0 0 0 1027.3 1027.3 0.0
18/06:30am -0.6 -2.8 -1.7 92 0.3 CALM 0 0 0 0 1027.0 1027.0 0.0
18/06:00am -1.3 -3.6 -2.6 91 0.4 CALM 0 0 0 0 1026.9 1026.9 0.0
18/05:30am -1.4 -4.1 -2.7 91 0.4 WSW 2 6 1 3 1026.8 1026.8 0.0
18/05:00am -0.9 -3.2 -2.3 90 0.4 CALM 0 0 0 0 1026.7 1026.7 0.0
18/04:30am -0.8 -3.1 -2.1 91 0.4 CALM 0 0 0 0 1026.9 1026.9 0.0
18/04:00am -0.6 -2.9 -2.0 90 0.5 CALM 0 0 0 0 1026.7 1026.7 0.0
18/03:30am -0.4 -2.7 -2.0 89 0.5 CALM 0 0 0 0 1026.6 1026.6 0.0
18/03:00am 0.2 -2.0 -1.2 90 0.5 CALM 0 0 0 0 1026.6 1026.6 0.0
18/02:30am 0.4 -1.8 -1.2 89 0.6 CALM 0 0 0 0 1026.9 1026.9 0.0
18/02:00am 0.7 -1.5 -1.2 87 0.7 CALM 0 0 0 0 1027.0 1027.0 0.0
18/01:30am 1.6 -0.5 -0.6 85 0.8 CALM 0 0 0 0 1027.2 1027.2 0.0
18/01:00am 1.7 -0.4 -0.5 85 0.8 CALM 0 0 0 0 1027.6 1027.6 0.0
18/12:30am 2.0 0.0 -0.4 84 0.9 CALM 0 0 0 0 1027.6 1027.6 0.0
18/12:00am 2.2 0.2 -0.2 84 0.9 CALM 0 0 0 0 1027.6 1027.6 0.0
 
Date/Time
CST
Temp
°C
App
Temp
°C
Dew
Point
°C
Rel
Hum
%
Delta-T
°C
Wind Press
QNH
hPa
Press
MSL
hPa
Rain since
9am
mm
Dir  Spd
km/h
Gust
km/h
Spd
kts
Gust
kts
17/11:30pm 2.8 0.8 0.0 82 1.0 CALM 0 0 0 0 1027.4 1027.4 0.0
17/11:00pm 3.2 1.3 0.4 82 1.1 CALM 0 0 0 0 1027.6 1027.6 0.0
17/10:30pm 4.2 2.3 0.4 76 1.4 CALM 0 0 0 0 1027.8 1027.8 0.0
17/10:00pm 5.0 2.4 0.8 74 1.6 SW 4 6 2 3 1027.9 1027.9 0.0
17/09:30pm 5.2 2.5 0.2 70 1.9 SW 4 7 2 4 1028.0 1028.0 0.0
17/09:00pm 7.8 4.7 1.4 64 2.6 ESE 7 9 4 5 1027.9 1027.9 0.0
17/08:30pm 7.3 5.4 0.5 62 2.7 CALM 0 2 0 1 1027.8 1027.8 0.0
17/08:00pm 7.5 4.8 0.5 61 2.8 SSW 4 7 2 4 1027.8 1027.8 0.0
17/07:30pm 9.0 6.2 -0.6 51 3.7 SW 4 6 2 3 1027.6 1027.6 0.0
17/07:00pm 10.2 7.0 -0.3 48 4.2 SW 6 7 3 4 1027.4 1027.4 0.0
17/06:30pm 12.5 8.8 -2.5 35 5.8 SSW 7 9 4 5 1026.8 1026.8 0.0
17/06:00pm 14.1 10.0 -3.2 30 6.7 S 9 13 5 7 1026.4 1026.4 0.0
17/05:30pm 15.4 10.8 -4.0 26 7.5 SSE 11 17 6 9 1026.3 1026.3 0.0
17/05:00pm 15.9 10.5 -4.1 25 7.8 SSE 15 20 8 11 1026.2 1026.2 0.0
17/04:30pm 15.9 10.9 -4.1 25 7.8 SSE 13 19 7 10 1026.1 1026.1 0.0
17/04:00pm 15.9 10.6 -3.6 26 7.7 SE 15 20 8 11 1025.9 1025.9 0.0
17/03:30pm 15.4 10.9 -3.5 27 7.4 SE 11 22 6 12 1026.0 1026.0 0.0
17/03:00pm 15.4 9.8 -2.5 29 7.1 S 17 26 9 14 1025.9 1025.9 0.0
17/02:30pm 14.9 10.4 -3.4 28 7.1 SE 11 19 6 10 1026.2 1026.2 0.0
17/02:00pm 14.7 8.5 -3.1 29 7.0 SSE 20 28 11 15 1026.2 1026.2 0.0
17/01:30pm 14.4 9.6 -2.5 31 6.7 SE 13 28 7 15 1026.4 1026.4 0.0
17/01:00pm 14.6 9.1 -2.3 31 6.8 SSE 17 26 9 14 1026.6 1026.6 0.0
17/12:30pm 13.2 8.4 -2.7 33 6.2 SE 13 24 7 13 1027.1 1027.1 0.0
17/12:00pm 13.5 7.4 -2.0 34 6.1 SSE 20 32 11 17 1027.4 1027.4 0.0
17/11:30am 11.9 6.8 -2.3 37 5.5 SE 15 22 8 12 1028.0 1028.0 0.0
17/11:00am 11.6 6.3 -0.5 43 4.9 ESE 17 24 9 13 1028.4 1028.4 0.0
17/10:30am 10.9 4.9 -1.5 42 4.8 ESE 20 30 11 16 1028.7 1028.7 0.0
17/10:00am 10.3 5.1 0.1 49 4.1 ESE 17 24 9 13 1028.9 1028.9 0.0
17/09:30am 9.5 4.5 1.2 56 3.4 SE 17 20 9 11 1029.3 1029.3 0.0
17/09:00am 8.7 3.8 1.8 62 2.8 ESE 17 22 9 12 1029.4 1029.4 4.4
17/08:30am 7.2 2.6 1.5 67 2.3 SE 15 20 8 11 1029.3 1029.3 4.4
17/08:00am 5.9 1.6 1.1 71 1.9 SE 13 17 7 9 1029.3 1029.3 4.4
17/07:30am 4.4 0.8 0.7 77 1.4 SSE 9 13 5 7 1029.1 1029.1 4.4
17/07:00am 2.3 -0.7 0.5 88 0.7 SW 6 7 3 4 1028.9 1028.9 4.4
17/06:30am 0.9 -2.3 -0.7 89 0.6 S 6 7 3 4 1028.4 1028.4 4.4
17/06:00am 1.6 -1.6 -0.3 87 0.7 S 6 9 3 5 1028.1 1028.1 4.4
17/05:30am 1.8 -1.9 -0.1 87 0.7 SSE 9 11 5 6 1027.7 1027.7 4.4
17/05:00am 2.2 -1.4 0.3 87 0.7 SSE 9 11 5 6 1027.4 1027.4 4.4
17/04:30am 2.8 -0.8 0.5 85 0.9 S 9 13 5 7 1027.3 1027.3 4.4
17/04:00am 2.9 -1.1 0.8 86 0.8 SSE 11 17 6 9 1027.0 1027.0 4.4
17/03:30am 3.5 -0.8 1.1 84 0.9 S 13 15 7 8 1026.9 1026.9 4.4
17/03:00am 4.2 0.0 1.4 82 1.1 SSE 13 19 7 10 1027.0 1027.0 4.4
17/02:30am 4.3 0.8 1.3 81 1.2 S 9 13 5 7 1027.2 1027.2 4.4
17/02:00am 4.5 1.1 1.7 82 1.1 SSE 9 11 5 6 1027.1 1027.1 4.4
17/01:30am 5.1 1.7 1.9 80 1.3 S 9 15 5 8 1027.2 1027.2 4.4
17/01:00am 5.7 1.6 2.0 77 1.5 S 13 20 7 11 1027.0 1027.0 4.4
17/12:30am 6.4 1.9 2.1 74 1.7 S 15 22 8 12 1027.2 1027.2 4.4
17/12:00am 6.6 2.5 2.3 74 1.8 S 13 19 7 10 1027.2 1027.2 4.4
 
Date/Time
CST
Temp
°C
App
Temp
°C
Dew
Point
°C
Rel
Hum
%
Delta-T
°C
Wind Press
QNH
hPa
Press
MSL
hPa
Rain since
9am
mm
Dir  Spd
km/h
Gust
km/h
Spd
kts
Gust
kts
16/11:30pm 6.8 2.4 2.5 74 1.8 S 15 19 8 10 1027.3 1027.3 4.4
16/11:00pm 7.4 3.0 2.5 71 2.0 S 15 20 8 11 1026.9 1026.9 4.4
16/10:30pm 8.0 3.2 2.5 68 2.3 S 17 22 9 12 1026.8 1026.8 4.4
16/10:00pm 8.6 3.8 2.6 66 2.5 S 17 24 9 13 1026.4 1026.4 4.4
16/09:30pm 9.1 4.0 2.9 65 2.6 S 19 24 10 13 1026.3 1026.3 4.4
16/09:00pm 10.0 4.9 3.1 62 3.0 S 19 28 10 15 1026.1 1026.1 4.4
16/08:30pm 10.2 5.6 3.9 65 2.8 S 17 22 9 12 1025.7 1025.7 4.4
16/08:00pm 10.4 5.8 3.7 63 2.9 S 17 22 9 12 1025.2 1025.2 4.4
16/07:30pm 10.5 6.2 3.5 62 3.0 SSW 15 24 8 13 1024.8 1024.8 4.4
16/07:00pm 10.1 7.0 3.8 65 2.8 SSW 9 13 5 7 1024.4 1024.4 4.4
16/06:30pm 11.0 7.5 3.5 60 3.3 S 11 15 6 8 1024.2 1024.2 4.4
16/06:00pm 11.7 7.7 3.0 55 3.8 S 13 17 7 9 1024.0 1024.0 4.4
16/05:30pm 13.0 7.8 2.3 48 4.6 S 19 28 10 15 1023.5 1023.5 4.4
16/05:00pm 12.8 7.2 3.5 53 4.2 S 22 30 12 16 1023.3 1023.3 4.4
16/04:30pm 13.1 8.4 5.3 59 3.6 SSE 19 28 10 15 1023.0 1023.0 4.4
16/04:00pm 12.5 10.0 8.0 74 2.2 S 11 17 6 9 1023.1 1023.1 4.4
16/03:30pm 11.9 10.0 8.9 82 1.5 SSW 9 17 5 9 1022.9 1022.9 4.4
16/03:00pm 11.2 8.3 8.2 82 1.5 SSW 13 17 7 9 1022.7 1022.7 4.4
16/02:30pm 10.9 9.0 9.0 88 0.9 SW 9 15 5 8 1023.0 1023.0 4.4
16/02:00pm 10.4 8.0 8.7 89 0.8 S 11 15 6 8 1022.9 1022.9 4.4
16/01:30pm 10.0 7.5 8.3 89 0.8 SSW 11 15 6 8 1023.4 1023.4 4.4
16/01:00pm 10.1 6.9 8.5 90 0.8 S 15 22 8 12 1023.4 1023.4 3.4
16/12:30pm 10.4 6.8 8.5 88 0.9 SSE 17 24 9 13 1022.8 1022.8 3.2
16/12:00pm 9.4 5.3 7.8 90 0.8 SSE 19 24 10 13 1022.5 1022.5 3.0
16/11:30am 9.5 4.9 8.3 92 0.6 S 22 32 12 17 1022.7 1022.7 2.2
16/11:00am 9.7 5.6 8.5 92 0.6 S 20 28 11 15 1023.0 1023.0 1.6
16/10:30am 10.5 6.2 7.7 83 1.3 S 20 28 11 15 1023.1 1023.1 0.2
16/10:00am 11.9 6.1 6.4 69 2.6 SSE 26 33 14 18 1022.3 1022.3 0.0

Other formats

Comma delimited format used in spreadsheet applications
http://www.bom.gov.au/fwo/IDS60801/IDS60801.95687.axf

JavaScript Object Notation format (JSON) in row-major order
http://www.bom.gov.au/fwo/IDS60801/IDS60801.95687.json

Data quality

Most of these data are generated automatically and are frequently updated. Quality checks on data are not normally performed. It is possible for incorrect values to appear. Refer to information at About Latest Weather Observations and please check the disclaimer before using these data.